Time;durP1;ratioP1;P1;durP2;ratioP2;P2;SDS_P1;SDS_P2;PMS_P1;PMS_P2;Temp;Humidity;BMP_temperature;BMP_pressure;BME280_temperature;BME280_humidity;BME280_pressure;Samples;Min_cycle;Max_cycle;Signal;HPM_P1;HPM_P2
2021/11/20 00:01:27;;;;;;;1.50;1.10;;;10.90;99.90;;;;;;5098270;28;20458;-71
2021/11/20 00:03:59;;;;;;;1.10;0.93;;;10.70;99.90;;;;;;5100435;28;20595;-74
2021/11/20 00:06:33;;;;;;;1.63;1.20;;;10.50;99.90;;;;;;5099900;28;20808;-71
2021/11/20 00:09:08;;;;;;;1.77;1.20;;;10.40;99.90;;;;;;5091945;28;20464;-67
2021/11/20 00:11:41;;;;;;;2.37;1.37;;;10.30;99.90;;;;;;5082746;28;20564;-73
2021/11/20 00:14:14;;;;;;;1.60;1.20;;;10.10;99.90;;;;;;5094374;28;20455;-70
2021/11/20 00:16:47;;;;;;;1.23;1.13;;;10.00;99.90;;;;;;5090213;28;20458;-75
2021/11/20 00:19:19;;;;;;;1.40;1.20;;;9.90;99.90;;;;;;5108184;28;20500;-76
2021/11/20 00:21:54;;;;;;;5.50;1.43;;;9.80;99.90;;;;;;5078085;28;20443;-73
2021/11/20 00:24:31;;;;;;;3.17;1.70;;;9.70;99.90;;;;;;5092679;28;20454;-70
2021/11/20 00:27:04;;;;;;;2.00;1.50;;;9.60;99.90;;;;;;5096641;28;20555;-71
2021/11/20 00:29:44;;;;;;;2.10;1.70;;;9.50;99.90;;;;;;5091181;28;20555;-70
2021/11/20 00:32:18;;;;;;;2.13;1.57;;;9.40;99.90;;;;;;5089743;28;20944;-71
2021/11/20 00:34:50;;;;;;;2.30;1.37;;;9.30;99.90;;;;;;5088871;28;20971;-70
2021/11/20 00:37:21;;;;;;;1.80;1.70;;;9.20;99.90;;;;;;5091273;28;20571;-73
2021/11/20 00:39:53;;;;;;;2.47;1.50;;;9.10;99.90;;;;;;5095962;28;20214;-71
2021/11/20 00:42:24;;;;;;;2.33;1.90;;;9.00;99.90;;;;;;5111451;28;20461;-70
2021/11/20 00:44:55;;;;;;;1.73;1.63;;;8.90;99.90;;;;;;5098362;28;20461;-70
2021/11/20 00:47:26;;;;;;;1.97;1.73;;;8.80;99.90;;;;;;5104075;28;20816;-70
2021/11/20 00:49:57;;;;;;;2.60;2.10;;;8.70;99.90;;;;;;5091176;28;20989;-72
2021/11/20 00:52:28;;;;;;;2.60;1.80;;;8.70;99.90;;;;;;5102302;28;20450;-70
2021/11/20 00:55:01;;;;;;;2.45;1.80;;;8.60;99.90;;;;;;5091849;27;20208;-75
2021/11/20 00:57:31;;;;;;;2.55;2.35;;;8.50;99.90;;;;;;5089385;28;20245;-75
2021/11/20 01:00:02;;;;;;;3.13;2.90;;;8.50;99.90;;;;;;5079565;28;20225;-71
2021/11/20 01:02:33;;;;;;;3.60;3.30;;;8.40;99.90;;;;;;5088015;28;20341;-73
2021/11/20 01:05:05;;;;;;;5.80;5.25;;;8.30;99.90;;;;;;5088481;28;20236;-72
2021/11/20 01:07:36;;;;;;;6.72;4.97;;;8.20;99.90;;;;;;5090087;28;20216;-71
2021/11/20 01:10:12;;;;;;;6.30;5.70;;;8.10;99.90;;;;;;5095688;28;20222;-71
2021/11/20 01:12:44;;;;;;;6.88;6.10;;;8.00;99.90;;;;;;5074347;28;20233;-71
2021/11/20 01:15:26;;;;;;;6.45;5.85;;;8.10;99.90;;;;;;5088931;28;20208;-71
2021/11/20 01:17:57;;;;;;;6.68;5.97;;;8.10;99.90;;;;;;5090863;28;20712;-70
2021/11/20 01:20:28;;;;;;;7.07;6.32;;;8.00;99.90;;;;;;5086462;28;20208;-71
2021/11/20 01:22:59;;;;;;;6.40;5.65;;;8.00;99.90;;;;;;5091132;28;20216;-72
2021/11/20 01:25:32;;;;;;;6.40;5.80;;;8.00;99.90;;;;;;5086121;28;20569;-71
2021/11/20 01:28:04;;;;;;;10.77;8.15;;;8.00;99.90;;;;;;5079458;28;20233;-70
2021/11/20 01:30:35;;;;;;;7.78;7.07;;;8.00;99.90;;;;;;5087812;28;20213;-71
2021/11/20 01:33:07;;;;;;;7.45;6.70;;;8.00;99.90;;;;;;5097056;28;20264;-73
2021/11/20 01:35:38;;;;;;;7.43;6.72;;;8.00;99.90;;;;;;5098076;28;20216;-74
2021/11/20 01:38:09;;;;;;;8.40;7.40;;;8.00;99.90;;;;;;5102149;28;20300;-71
2021/11/20 01:40:44;;;;;;;8.45;7.57;;;8.00;99.90;;;;;;5106537;28;20211;-70
2021/11/20 01:43:15;;;;;;;9.50;8.50;;;8.10;99.90;;;;;;5081237;28;20212;-70
2021/11/20 01:45:54;;;;;;;7.88;7.07;;;8.00;99.90;;;;;;5085198;28;20297;-70
2021/11/20 01:48:51;;;;;;;9.80;8.10;;;8.00;99.90;;;;;;5091338;28;20208;-73
2021/11/20 01:51:24;;;;;;;7.90;7.20;;;7.90;99.90;;;;;;5100176;28;20220;-75
2021/11/20 01:54:07;;;;;;;9.23;7.95;;;7.90;99.90;;;;;;5090306;28;20219;-71
2021/11/20 01:56:45;;;;;;;12.05;10.07;;;7.90;99.90;;;;;;5087844;28;20219;-72
2021/11/20 01:59:21;;;;;;;14.10;12.60;;;7.90;99.90;;;;;;5083810;28;20255;-70
2021/11/20 02:01:58;;;;;;;20.42;15.40;;;7.90;99.90;;;;;;5081892;28;20212;-72
2021/11/20 02:04:36;;;;;;;15.50;14.15;;;7.80;99.90;;;;;;5093306;28;20243;-71
2021/11/20 02:07:12;;;;;;;15.60;14.05;;;7.80;99.90;;;;;;5095636;28;20215;-71
2021/11/20 02:10:00;;;;;;;23.50;14.10;;;7.70;99.90;;;;;;5097459;28;20204;-71
2021/11/20 02:12:37;;;;;;;16.92;15.23;;;7.70;99.90;;;;;;5092115;28;20648;-70
2021/11/20 02:15:10;;;;;;;16.27;13.57;;;7.70;99.90;;;;;;5101259;28;20280;-70
2021/11/20 02:17:45;;;;;;;13.52;12.32;;;7.60;99.90;;;;;;5093952;28;20216;-73
2021/11/20 02:20:21;;;;;;;16.42;14.75;;;7.60;99.90;;;;;;5091593;28;20598;-75
2021/11/20 02:22:51;;;;;;;16.15;13.68;;;7.60;99.90;;;;;;5094259;28;20216;-71
2021/11/20 02:25:22;;;;;;;16.15;14.65;;;7.50;99.90;;;;;;5100374;28;20212;-70
2021/11/20 02:27:57;;;;;;;17.83;16.02;;;7.50;99.90;;;;;;5090148;28;20612;-71
2021/11/20 02:30:31;;;;;;;19.92;17.92;;;7.40;99.90;;;;;;5092449;28;20220;-73
2021/11/20 02:33:05;;;;;;;15.25;13.93;;;7.50;99.90;;;;;;5108793;28;20211;-71
2021/11/20 02:35:38;;;;;;;16.27;14.68;;;7.50;99.90;;;;;;5102894;28;20563;-70
2021/11/20 02:38:13;;;;;;;22.88;16.83;;;7.50;99.90;;;;;;5103495;28;20315;-70
2021/11/20 02:40:45;;;;;;;972.72;178.07;;;7.50;99.90;;;;;;5088976;28;20246;-70
2021/11/20 02:43:18;;;;;;;14.45;13.05;;;7.50;99.90;;;;;;5094643;28;20213;-78
2021/11/20 02:45:52;;;;;;;15.02;13.43;;;7.60;99.90;;;;;;5090047;28;20212;-71
2021/11/20 02:48:24;;;;;;;16.27;13.55;;;7.60;99.90;;;;;;5102536;28;20218;-70
2021/11/20 02:50:57;;;;;;;14.90;13.30;;;7.60;99.90;;;;;;5095935;28;20518;-71
2021/11/20 02:53:33;;;;;;;15.07;13.70;;;7.70;99.90;;;;;;5105318;28;20216;-71
2021/11/20 02:56:06;;;;;;;14.93;13.32;;;7.70;99.90;;;;;;5099879;28;20227;-73
2021/11/20 02:58:37;;;;;;;15.48;13.90;;;7.70;99.90;;;;;;5095440;28;20231;-70
2021/11/20 03:01:12;;;;;;;16.75;15.05;;;7.80;99.90;;;;;;5079741;28;20220;-72
2021/11/20 03:03:43;;;;;;;19.38;17.48;;;7.80;99.90;;;;;;5091557;28;20211;-73
2021/11/20 03:06:15;;;;;;;22.38;20.08;;;7.80;99.90;;;;;;5106720;28;20216;-71
2021/11/20 03:08:46;;;;;;;22.42;20.15;;;7.90;99.90;;;;;;5082902;28;20211;-73
2021/11/20 03:11:18;;;;;;;19.40;17.50;;;7.90;99.90;;;;;;5101301;28;20216;-70
2021/11/20 03:13:52;;;;;;;18.70;16.70;;;7.90;99.90;;;;;;5093124;28;20304;-70
2021/11/20 03:16:25;;;;;;;17.92;16.17;;;8.00;99.90;;;;;;5099056;28;20245;-74
2021/11/20 03:18:56;;;;;;;16.73;15.23;;;7.90;99.90;;;;;;5099931;27;20277;-71
2021/11/20 03:21:26;;;;;;;16.83;15.05;;;8.00;99.90;;;;;;5099964;28;20218;-71
2021/11/20 03:23:59;;;;;;;16.52;14.90;;;8.00;99.90;;;;;;5084650;28;20221;-70
2021/11/20 03:26:30;;;;;;;16.98;14.40;;;8.00;99.90;;;;;;5089547;28;20661;-70
2021/11/20 03:29:01;;;;;;;14.98;13.63;;;8.00;99.90;;;;;;5089110;28;20224;-70
2021/11/20 03:31:34;;;;;;;16.60;15.00;;;8.00;99.90;;;;;;5105486;28;20216;-70
2021/11/20 03:34:06;;;;;;;16.10;14.60;;;8.10;99.90;;;;;;5101800;28;20258;-70
2021/11/20 03:36:37;;;;;;;15.90;14.27;;;8.10;99.90;;;;;;5084609;28;20538;-71
2021/11/20 03:39:10;;;;;;;16.38;14.98;;;8.10;99.90;;;;;;5096725;28;20672;-70
2021/11/20 03:41:42;;;;;;;18.70;16.80;;;8.10;99.90;;;;;;5097372;28;20217;-73
2021/11/20 03:44:13;;;;;;;19.67;17.77;;;8.10;99.90;;;;;;5099678;28;20678;-69
2021/11/20 03:46:46;;;;;;;17.88;15.98;;;8.10;99.90;;;;;;5112826;28;20806;-70
2021/11/20 03:49:17;;;;;;;19.60;16.60;;;8.10;99.90;;;;;;5087228;28;20293;-71
2021/11/20 03:51:48;;;;;;;17.42;15.57;;;8.00;99.90;;;;;;5099137;28;20461;-71
2021/11/20 03:54:19;;;;;;;18.73;16.88;;;8.00;99.90;;;;;;5092154;28;20220;-70
2021/11/20 03:56:50;;;;;;;18.17;16.27;;;8.00;99.90;;;;;;5089512;28;20208;-73
2021/11/20 03:59:21;;;;;;;18.08;16.17;;;7.90;99.90;;;;;;5085691;28;20306;-71
2021/11/20 04:01:53;;;;;;;19.45;17.45;;;7.90;99.90;;;;;;5097040;28;20224;-71
2021/11/20 04:04:25;;;;;;;20.40;18.38;;;7.80;99.90;;;;;;5098821;28;20223;-70
2021/11/20 04:06:55;;;;;;;19.35;17.10;;;7.80;99.90;;;;;;5098218;28;20213;-71
2021/11/20 04:09:27;;;;;;;23.30;18.45;;;7.80;99.90;;;;;;5103705;28;20212;-71
2021/11/20 04:11:58;;;;;;;22.85;19.45;;;7.70;99.90;;;;;;5106114;28;20215;-70
2021/11/20 04:14:29;;;;;;;26.67;23.77;;;7.70;99.90;;;;;;5088557;28;20617;-72
2021/11/20 04:17:02;;;;;;;26.95;24.17;;;7.60;99.90;;;;;;5104748;28;20298;-70
2021/11/20 04:19:33;;;;;;;31.92;27.83;;;7.50;99.90;;;;;;5091211;28;20217;-70
2021/11/20 04:22:04;;;;;;;31.42;28.52;;;7.50;99.90;;;;;;5090454;28;20675;-70
2021/11/20 04:24:35;;;;;;;28.35;25.52;;;7.40;99.90;;;;;;5091901;28;20238;-73
2021/11/20 04:27:06;;;;;;;26.85;24.42;;;7.40;99.90;;;;;;5091724;28;20217;-70
2021/11/20 04:29:37;;;;;;;22.15;19.80;;;7.30;99.90;;;;;;5092474;28;20212;-70
2021/11/20 04:32:11;;;;;;;23.35;20.85;;;7.30;99.90;;;;;;5106715;28;20279;-72
2021/11/20 04:34:42;;;;;;;22.33;20.00;;;7.20;99.90;;;;;;5089180;28;20216;-72
2021/11/20 04:37:13;;;;;;;211.02;41.15;;;7.20;99.90;;;;;;5091519;28;20220;-76
2021/11/20 04:39:44;;;;;;;58.58;26.33;;;7.20;99.90;;;;;;5074774;28;20219;-73
2021/11/20 04:42:15;;;;;;;1999.90;848.67;;;7.10;99.90;;;;;;5089484;28;20216;-70
2021/11/20 04:44:46;;;;;;;21.98;19.90;;;7.20;99.90;;;;;;5103546;28;20234;-74
2021/11/20 04:47:18;;;;;;;22.60;19.33;;;7.10;99.90;;;;;;5093361;28;20615;-71
2021/11/20 04:49:49;;;;;;;23.48;21.23;;;7.00;99.90;;;;;;5090576;28;20235;-72
2021/11/20 04:52:20;;;;;;;27.30;23.15;;;7.00;99.90;;;;;;5106105;28;20705;-71
2021/11/20 04:54:51;;;;;;;24.63;22.05;;;7.00;99.90;;;;;;5091072;28;20227;-70
2021/11/20 04:57:31;;;;;;;23.52;21.30;;;7.10;99.90;;;;;;5090296;28;20225;-71
2021/11/20 05:00:02;;;;;;;24.67;22.17;;;7.00;99.90;;;;;;5092383;28;20250;-80
2021/11/20 05:02:34;;;;;;;25.92;23.35;;;7.10;99.90;;;;;;5106221;28;20691;-70
2021/11/20 05:05:07;;;;;;;22.35;20.25;;;7.10;99.90;;;;;;5097687;28;20270;-74
2021/11/20 05:07:37;;;;;;;23.95;21.65;;;7.10;99.90;;;;;;5101296;28;20246;-70
2021/11/20 05:10:11;;;;;;;28.83;22.70;;;7.10;99.90;;;;;;5102377;28;20215;-69
2021/11/20 05:12:42;;;;;;;26.23;23.20;;;7.10;99.90;;;;;;5107391;28;20248;-70
2021/11/20 05:15:15;;;;;;;24.90;22.35;;;7.20;99.90;;;;;;5092831;28;20563;-73
2021/11/20 05:17:47;;;;;;;23.10;20.70;;;7.30;99.90;;;;;;5074464;28;20213;-71
2021/11/20 05:20:18;;;;;;;24.42;21.90;;;7.30;99.90;;;;;;5100375;28;20223;-76
2021/11/20 05:22:49;;;;;;;25.50;22.90;;;7.20;99.90;;;;;;5074919;28;20212;-70
2021/11/20 05:25:21;;;;;;;23.48;21.23;;;7.30;99.90;;;;;;5094199;28;20315;-70
2021/11/20 05:27:54;;;;;;;22.77;20.58;;;7.20;99.90;;;;;;5089807;28;20236;-70
2021/11/20 05:30:27;;;;;;;24.02;21.55;;;7.20;99.90;;;;;;5091318;28;20212;-69
2021/11/20 05:33:02;;;;;;;25.50;22.73;;;7.30;99.90;;;;;;5092130;28;20216;-71
2021/11/20 05:35:34;;;;;;;24.45;21.92;;;7.30;99.90;;;;;;5087955;28;20227;-72
2021/11/20 05:38:06;;;;;;;24.30;21.90;;;7.30;99.90;;;;;;5095524;28;20218;-70
2021/11/20 05:40:38;;;;;;;22.75;20.35;;;7.20;99.90;;;;;;5099427;28;20259;-68
2021/11/20 05:43:11;;;;;;;23.05;20.95;;;7.20;99.90;;;;;;5095934;28;20224;-72
2021/11/20 05:45:46;;;;;;;23.45;21.08;;;7.20;99.90;;;;;;5098204;28;20213;-68
2021/11/20 05:48:18;;;;;;;25.38;22.73;;;7.30;99.90;;;;;;5078353;28;20212;-71
2021/11/20 05:50:50;;;;;;;26.83;24.17;;;7.30;99.90;;;;;;5081218;28;20208;-69
2021/11/20 05:53:22;;;;;;;24.17;21.75;;;7.40;99.90;;;;;;5110882;28;20207;-73
2021/11/20 05:55:55;;;;;;;26.35;23.63;;;7.40;99.90;;;;;;5098897;28;20580;-72
2021/11/20 05:58:26;;;;;;;23.70;21.25;;;7.40;99.90;;;;;;5101179;28;20223;-71
2021/11/20 06:01:00;;;;;;;25.48;22.70;;;7.40;99.90;;;;;;5091635;28;20239;-71
2021/11/20 06:03:34;;;;;;;24.80;22.27;;;7.40;99.90;;;;;;5088622;28;20219;-69
2021/11/20 06:06:05;;;;;;;27.60;24.10;;;7.40;99.90;;;;;;5095491;28;20551;-72
2021/11/20 06:08:36;;;;;;;25.23;22.50;;;7.50;99.90;;;;;;5101094;28;20212;-69
2021/11/20 06:11:07;;;;;;;25.15;22.75;;;7.40;99.90;;;;;;5101740;28;20796;-74
2021/11/20 06:13:38;;;;;;;24.25;21.75;;;7.40;99.90;;;;;;5090234;28;20213;-69
2021/11/20 06:16:09;;;;;;;26.08;22.15;;;7.40;99.90;;;;;;5085202;28;20220;-71
2021/11/20 06:18:42;;;;;;;24.52;22.05;;;7.30;99.90;;;;;;5102759;28;20261;-70
2021/11/20 06:21:13;;;;;;;24.83;22.23;;;7.30;99.90;;;;;;5105581;28;20242;-72
2021/11/20 06:23:44;;;;;;;30.00;24.23;;;7.20;99.90;;;;;;5087744;28;20266;-71
2021/11/20 06:26:15;;;;;;;25.27;22.75;;;7.20;99.90;;;;;;5088885;28;20212;-68
2021/11/20 06:28:47;;;;;;;26.15;23.63;;;7.20;99.90;;;;;;5088487;28;20712;-68
2021/11/20 06:31:19;;;;;;;30.08;26.98;;;7.10;99.90;;;;;;5088533;28;20211;-69
2021/11/20 06:33:52;;;;;;;30.13;27.33;;;7.10;99.90;;;;;;5074448;28;20704;-69
2021/11/20 06:36:24;;;;;;;29.58;26.58;;;7.10;99.90;;;;;;5103928;28;20215;-72
2021/11/20 06:38:55;;;;;;;29.77;26.85;;;7.10;99.90;;;;;;5099098;28;20235;-71
2021/11/20 06:41:26;;;;;;;32.05;28.80;;;7.10;99.90;;;;;;5087181;28;20224;-69
2021/11/20 06:43:57;;;;;;;33.28;28.83;;;7.10;99.90;;;;;;5104010;28;20224;-68
2021/11/20 06:46:27;;;;;;;32.45;29.00;;;7.10;99.90;;;;;;5087660;28;20209;-73
2021/11/20 06:49:00;;;;;;;29.58;26.77;;;7.00;99.90;;;;;;5104303;28;20299;-69
2021/11/20 06:51:31;;;;;;;31.92;28.48;;;7.00;99.90;;;;;;5087276;28;20208;-70
2021/11/20 06:54:02;;;;;;;30.83;27.90;;;6.90;99.90;;;;;;5090435;28;20234;-69
2021/11/20 06:56:47;;;;;;;34.10;30.25;;;6.90;99.90;;;;;;5089714;28;20699;-69
2021/11/20 07:00:25;;;;;;;36.00;32.50;;;6.90;99.90;;;;;;5073884;28;20217;-69
2021/11/20 07:02:18;;;;;;;37.22;33.30;;;6.90;99.90;;;;;;5086869;28;20217;-69
2021/11/20 07:04:51;;;;;;;33.28;29.77;;;7.00;99.90;;;;;;5099964;28;20213;-68
2021/11/20 07:07:21;;;;;;;33.33;29.73;;;6.90;99.90;;;;;;5101477;28;20219;-69
2021/11/20 07:09:52;;;;;;;33.25;29.65;;;6.90;99.90;;;;;;5104618;28;20882;-74
2021/11/20 07:12:23;;;;;;;33.05;29.42;;;6.90;99.90;;;;;;5112977;28;20215;-68
2021/11/20 07:14:54;;;;;;;35.25;31.10;;;6.90;99.90;;;;;;5104891;28;20696;-69
2021/11/20 07:17:25;;;;;;;34.08;30.55;;;6.90;99.90;;;;;;5101968;28;20214;-71
2021/11/20 07:19:57;;;;;;;32.15;28.60;;;6.80;99.90;;;;;;5107693;28;20371;-68
2021/11/20 07:22:28;;;;;;;328.98;87.32;;;6.90;99.90;;;;;;5112977;28;20239;-69
2021/11/20 07:24:59;;;;;;;32.25;29.15;;;7.00;99.90;;;;;;5100461;28;20205;-69
2021/11/20 07:27:30;;;;;;;31.45;28.40;;;7.10;99.90;;;;;;5102044;28;20682;-72
2021/11/20 07:30:01;;;;;;;31.75;28.65;;;7.10;99.90;;;;;;5104485;28;20208;-69
2021/11/20 07:32:32;;;;;;;32.65;29.55;;;7.10;99.90;;;;;;5109878;28;20681;-70
2021/11/20 07:35:05;;;;;;;30.90;28.05;;;7.10;99.90;;;;;;5078024;28;20215;-69
2021/11/20 07:37:36;;;;;;;30.42;27.42;;;7.00;99.90;;;;;;5091701;28;20589;-70
2021/11/20 07:40:08;;;;;;;32.63;29.38;;;7.00;99.90;;;;;;5099103;28;20699;-71
2021/11/20 07:42:39;;;;;;;31.40;28.40;;;7.10;99.90;;;;;;5104395;28;20247;-71
2021/11/20 07:45:11;;;;;;;31.55;28.15;;;7.20;99.90;;;;;;5104233;28;20211;-69
2021/11/20 07:47:41;;;;;;;29.50;26.70;;;7.10;99.90;;;;;;5092289;28;20212;-70
2021/11/20 07:50:16;;;;;;;29.15;26.45;;;7.20;99.90;;;;;;5079143;28;20228;-69
2021/11/20 07:52:48;;;;;;;29.77;26.75;;;7.20;99.90;;;;;;5090871;28;20247;-70
2021/11/20 07:55:19;;;;;;;28.13;25.42;;;7.20;99.90;;;;;;5102647;28;20533;-73
2021/11/20 07:57:50;;;;;;;28.38;25.48;;;7.20;99.90;;;;;;5085897;28;20576;-71
2021/11/20 08:00:23;;;;;;;27.85;24.95;;;7.10;99.90;;;;;;5083509;28;20362;-73
2021/11/20 08:02:53;;;;;;;25.48;22.98;;;7.30;99.90;;;;;;5092031;28;20311;-69
2021/11/20 08:05:28;;;;;;;28.08;25.23;;;7.30;99.90;;;;;;5100105;28;20281;-69
2021/11/20 08:07:59;;;;;;;27.77;24.85;;;7.30;99.90;;;;;;5095517;28;20223;-69
2021/11/20 08:10:33;;;;;;;26.70;23.90;;;7.40;99.90;;;;;;5109520;28;20222;-69
2021/11/20 08:13:04;;;;;;;25.80;23.30;;;7.40;99.90;;;;;;5078844;28;20575;-68
2021/11/20 08:15:37;;;;;;;27.10;23.15;;;7.30;99.90;;;;;;5093237;28;20680;-68
2021/11/20 08:18:08;;;;;;;25.20;22.55;;;7.30;99.90;;;;;;5098565;28;20213;-69
2021/11/20 08:20:43;;;;;;;27.77;25.02;;;7.40;99.90;;;;;;5106291;28;20208;-68
2021/11/20 08:23:16;;;;;;;25.95;22.85;;;7.40;99.90;;;;;;5099230;28;20684;-68
2021/11/20 08:25:49;;;;;;;25.30;22.50;;;7.40;99.90;;;;;;5100392;28;20258;-68
2021/11/20 08:28:21;;;;;;;24.00;21.70;;;7.40;99.90;;;;;;5084837;28;20243;-69
2021/11/20 08:30:52;;;;;;;26.52;22.80;;;7.40;99.90;;;;;;5089859;28;20217;-69
2021/11/20 08:33:24;;;;;;;25.15;22.55;;;7.50;99.90;;;;;;5104845;28;20208;-69
2021/11/20 08:35:57;;;;;;;23.80;21.30;;;7.60;99.90;;;;;;5089884;28;20247;-71
2021/11/20 08:38:28;;;;;;;27.45;22.88;;;7.50;99.90;;;;;;5097298;28;20226;-69
2021/11/20 08:40:58;;;;;;;26.35;23.70;;;7.60;99.90;;;;;;5093221;28;20203;-73
2021/11/20 08:43:30;;;;;;;570.08;116.60;;;7.70;99.90;;;;;;5112264;28;20232;-73
2021/11/20 08:46:03;;;;;;;25.90;23.13;;;7.80;99.90;;;;;;5085116;28;20214;-70
2021/11/20 08:48:35;;;;;;;24.70;21.58;;;7.70;99.90;;;;;;5091438;28;20231;-69
2021/11/20 08:51:13;;;;;;;25.00;22.30;;;7.60;99.90;;;;;;5103537;28;20255;-70
2021/11/20 08:53:45;;;;;;;24.35;22.02;;;7.60;99.90;;;;;;5090956;28;20588;-71
2021/11/20 08:56:19;;;;;;;23.63;21.10;;;7.50;99.90;;;;;;5075177;28;20318;-70
2021/11/20 08:58:50;;;;;;;24.98;22.27;;;7.50;99.90;;;;;;5107042;28;20333;-70
2021/11/20 09:01:25;;;;;;;25.00;22.42;;;7.50;99.90;;;;;;5096541;28;20306;-73
2021/11/20 09:04:01;;;;;;;26.38;23.58;;;7.50;99.90;;;;;;5094031;28;20585;-69
2021/11/20 09:06:42;;;;;;;24.38;21.75;;;7.60;99.90;;;;;;5101273;28;20211;-70
2021/11/20 09:09:21;;;;;;;25.77;23.30;;;7.60;99.90;;;;;;5102220;28;20677;-72
2021/11/20 09:11:59;;;;;;;23.10;20.90;;;7.60;99.90;;;;;;5090670;28;20299;-70
2021/11/20 09:14:35;;;;;;;25.50;22.85;;;7.60;99.90;;;;;;5093975;28;20228;-69
2021/11/20 09:17:07;;;;;;;25.42;21.80;;;7.60;99.90;;;;;;5091808;28;20345;-68
2021/11/20 09:19:38;;;;;;;24.63;21.67;;;7.60;99.90;;;;;;5093180;28;20216;-69
2021/11/20 09:22:11;;;;;;;25.15;22.48;;;7.60;99.90;;;;;;5108457;28;20212;-70
2021/11/20 09:24:44;;;;;;;25.08;22.77;;;7.60;99.90;;;;;;5101239;28;20604;-72
2021/11/20 09:27:35;;;;;;;24.65;22.15;;;7.70;99.90;;;;;;5090018;28;20237;-69
2021/11/20 09:30:15;;;;;;;25.95;22.08;;;7.70;99.90;;;;;;5099579;28;20585;-74
2021/11/20 09:32:46;;;;;;;24.92;22.33;;;7.70;99.90;;;;;;5087912;28;20255;-74
2021/11/20 09:35:16;;;;;;;24.48;22.05;;;7.70;99.90;;;;;;5088289;28;20224;-75
2021/11/20 09:37:52;;;;;;;23.45;21.17;;;7.70;99.90;;;;;;5090977;28;20224;-70
2021/11/20 09:40:24;;;;;;;24.30;22.02;;;7.70;99.90;;;;;;5098282;28;20212;-73
2021/11/20 09:42:59;;;;;;;24.60;22.17;;;7.80;99.90;;;;;;5092868;28;20329;-73
2021/11/20 09:45:34;;;;;;;24.95;21.80;;;7.70;99.90;;;;;;5092777;28;20302;-74
2021/11/20 09:48:11;;;;;;;24.48;21.75;;;7.80;99.90;;;;;;5079184;28;20219;-69
2021/11/20 09:50:57;;;;;;;23.20;20.20;;;7.80;99.90;;;;;;5098167;28;20238;-69
2021/11/20 09:53:31;;;;;;;22.02;19.73;;;7.80;99.90;;;;;;5091122;28;20649;-71
2021/11/20 09:56:05;;;;;;;23.67;21.33;;;7.70;99.90;;;;;;5085580;28;20208;-70
2021/11/20 09:58:40;;;;;;;24.20;21.55;;;7.70;99.90;;;;;;5098707;28;20211;-69
2021/11/20 10:01:32;;;;;;;23.38;20.85;;;7.70;99.90;;;;;;5102326;28;20211;-69
2021/11/20 10:04:21;;;;;;;22.88;20.52;;;7.80;99.90;;;;;;5078744;28;20220;-69
2021/11/20 10:06:55;;;;;;;22.42;20.15;;;7.70;99.90;;;;;;5109451;28;20215;-74
2021/11/20 10:09:32;;;;;;;26.25;21.08;;;7.80;99.90;;;;;;5093304;28;20314;-70
2021/11/20 10:12:17;;;;;;;1250.00;218.13;;;7.80;99.90;;;;;;5092353;28;20212;-76
2021/11/20 10:14:51;;;;;;;24.73;21.63;;;7.90;99.90;;;;;;5090634;28;20205;-69
2021/11/20 10:17:29;;;;;;;26.90;21.63;;;8.00;99.90;;;;;;5093583;28;20223;-69
2021/11/20 10:20:15;;;;;;;21.42;19.13;;;7.90;99.90;;;;;;5091917;28;20212;-72
2021/11/20 10:22:55;;;;;;;23.45;21.25;;;7.80;99.90;;;;;;5100147;28;20212;-76
2021/11/20 10:25:49;;;;;;;24.10;21.50;;;7.90;99.90;;;;;;5098563;28;20230;-69
2021/11/20 10:28:33;;;;;;;22.80;20.50;;;8.00;99.90;;;;;;5072191;28;20658;-71
2021/11/20 10:31:07;;;;;;;25.70;21.65;;;7.90;99.90;;;;;;5080753;28;20590;-69
2021/11/20 10:33:42;;;;;;;22.70;20.58;;;7.80;99.90;;;;;;5081907;28;20211;-70
2021/11/20 10:36:20;;;;;;;22.40;20.40;;;7.90;99.90;;;;;;5096746;28;20625;-69
2021/11/20 10:39:07;;;;;;;23.25;21.05;;;7.90;99.90;;;;;;5101610;28;20326;-69
2021/11/20 10:41:45;;;;;;;23.13;20.77;;;7.90;99.90;;;;;;5093278;28;20216;-69
2021/11/20 10:44:21;;;;;;;22.42;20.17;;;7.90;99.90;;;;;;5091962;28;20706;-69
2021/11/20 10:47:01;;;;;;;26.40;20.02;;;7.90;99.90;;;;;;5100366;28;20211;-70
2021/11/20 10:49:53;;;;;;;20.13;18.15;;;7.90;99.90;;;;;;5088351;28;20245;-69
2021/11/20 10:53:04;;;;;;;19.92;17.90;;;7.90;99.90;;;;;;5089731;28;20215;-70
2021/11/20 10:55:41;;;;;;;22.48;20.15;;;7.90;99.90;;;;;;5088538;28;20667;-70
2021/11/20 10:58:33;;;;;;;23.75;20.67;;;7.90;99.90;;;;;;5094106;28;20259;-72
2021/11/20 11:01:36;;;;;;;26.52;22.25;;;7.90;99.90;;;;;;5107920;28;20212;-72
2021/11/20 11:04:20;;;;;;;23.35;20.88;;;7.90;99.90;;;;;;5095896;28;20227;-69
2021/11/20 11:06:57;;;;;;;21.27;19.00;;;8.10;99.90;;;;;;5101724;28;20301;-69
2021/11/20 11:09:53;;;;;;;22.08;18.58;;;8.00;99.90;;;;;;5087955;28;20227;-68
2021/11/20 11:12:38;;;;;;;21.85;19.77;;;7.90;99.90;;;;;;5078546;28;20212;-69
2021/11/20 11:15:22;;;;;;;22.52;20.00;;;7.90;99.90;;;;;;5099170;28;20211;-69
2021/11/20 11:18:31;;;;;;;21.13;19.02;;;7.80;99.90;;;;;;5094275;28;20223;-69
2021/11/20 11:21:39;;;;;;;21.08;18.98;;;7.80;99.90;;;;;;5085083;28;20231;-69
2021/11/20 11:24:34;;;;;;;21.77;19.58;;;7.80;99.90;;;;;;5092897;28;20242;-69
2021/11/20 11:27:11;;;;;;;21.63;19.50;;;7.80;99.90;;;;;;5080948;28;20247;-70
2021/11/20 11:29:58;;;;;;;21.02;19.00;;;7.80;99.90;;;;;;5090304;28;20239;-71
2021/11/20 11:32:32;;;;;;;23.23;18.60;;;7.80;99.90;;;;;;5080876;28;20216;-69
2021/11/20 11:35:09;;;;;;;21.17;18.98;;;7.90;99.90;;;;;;5090246;28;20306;-69
2021/11/20 11:38:04;;;;;;;21.88;19.63;;;7.90;99.90;;;;;;5100615;28;20302;-70
2021/11/20 11:40:41;;;;;;;22.92;20.50;;;7.90;99.90;;;;;;5090703;28;20303;-70
2021/11/20 11:43:15;;;;;;;25.05;20.20;;;7.90;99.90;;;;;;5092610;28;20680;-71
2021/11/20 11:46:10;;;;;;;21.10;19.10;;;7.90;99.90;;;;;;5085320;28;20269;-71
2021/11/20 11:49:08;;;;;;;22.63;19.98;;;8.00;99.90;;;;;;5081637;28;20219;-69
2021/11/20 11:51:49;;;;;;;21.30;19.30;;;8.00;99.90;;;;;;5080462;28;20223;-69
2021/11/20 11:54:38;;;;;;;22.63;19.88;;;8.00;99.90;;;;;;5090644;28;20308;-69
2021/11/20 11:57:36;;;;;;;21.63;18.05;;;7.90;99.90;;;;;;5098918;28;20213;-70
2021/11/20 12:00:28;;;;;;;21.42;18.10;;;7.80;99.90;;;;;;5091953;28;20220;-69
2021/11/20 12:03:05;;;;;;;25.08;20.52;;;7.80;99.90;;;;;;5084494;28;20299;-71
2021/11/20 12:05:45;;;;;;;22.58;19.50;;;7.80;99.90;;;;;;5086518;28;20296;-71
2021/11/20 12:08:40;;;;;;;20.00;18.10;;;7.90;99.90;;;;;;5092165;28;20217;-69
2021/11/20 12:11:16;;;;;;;22.52;20.23;;;7.80;99.90;;;;;;5096765;28;20534;-70
2021/11/20 12:13:51;;;;;;;21.55;19.25;;;7.80;99.90;;;;;;5114458;28;20208;-69
2021/11/20 12:16:53;;;;;;;21.23;18.98;;;7.80;99.90;;;;;;5105701;28;20227;-71
2021/11/20 12:19:36;;;;;;;20.35;18.25;;;7.80;99.90;;;;;;5030118;28;20612;-69
2021/11/20 12:22:20;;;;;;;21.63;19.23;;;7.80;99.90;;;;;;5086149;28;20220;-70
2021/11/20 12:24:55;;;;;;;20.90;18.73;;;7.90;99.90;;;;;;5088262;28;20615;-69
2021/11/20 12:27:36;;;;;;;21.65;19.42;;;7.80;99.90;;;;;;5084570;28;20655;-69
2021/11/20 12:30:33;;;;;;;20.05;18.10;;;7.70;99.90;;;;;;5084542;28;20217;-71
2021/11/20 12:33:24;;;;;;;21.17;19.00;;;7.60;99.90;;;;;;5084149;28;20314;-69
2021/11/20 12:36:26;;;;;;;23.90;20.35;;;7.40;99.90;;;;;;5084801;28;20215;-69
2021/11/20 12:39:38;;;;;;;23.33;18.35;;;7.30;99.90;;;;;;5062209;28;20310;-72
2021/11/20 12:42:38;;;;;;;24.30;19.88;;;7.20;99.90;;;;;;5100017;28;20264;-72
2021/11/20 12:45:38;;;;;;;21.52;19.25;;;7.00;99.90;;;;;;5083771;28;20325;-70
2021/11/20 12:48:36;;;;;;;25.15;21.17;;;6.90;99.90;;;;;;5076727;28;20228;-70
2021/11/20 12:51:23;;;;;;;24.75;21.02;;;6.80;99.90;;;;;;5107190;28;20214;-69
2021/11/20 12:53:58;;;;;;;88.65;32.80;;;6.80;99.90;;;;;;5087561;28;20239;-70
2021/11/20 12:56:39;;;;;;;22.73;20.52;;;6.70;99.90;;;;;;5088610;28;20212;-70
2021/11/20 12:59:20;;;;;;;21.23;18.75;;;6.70;99.90;;;;;;5093832;28;20565;-69
2021/11/20 13:01:55;;;;;;;27.67;22.23;;;6.60;99.90;;;;;;5099126;28;20212;-71
2021/11/20 13:04:41;;;;;;;27.70;20.45;;;6.70;99.90;;;;;;5104714;28;20231;-69
2021/11/20 13:07:15;;;;;;;25.08;21.02;;;6.70;99.90;;;;;;5097706;28;20681;-69
2021/11/20 13:09:57;;;;;;;23.52;20.92;;;6.70;99.90;;;;;;5089011;28;20216;-69
2021/11/20 13:12:35;;;;;;;25.48;22.75;;;6.70;99.90;;;;;;5096305;28;20212;-69
2021/11/20 13:15:29;;;;;;;23.30;20.90;;;6.80;99.90;;;;;;5084882;28;20254;-69
2021/11/20 13:18:11;;;;;;;24.40;20.52;;;6.90;99.90;;;;;;5097823;28;20218;-69
2021/11/20 13:20:52;;;;;;;23.98;20.38;;;6.90;99.90;;;;;;5108704;28;20212;-69
2021/11/20 13:23:25;;;;;;;22.85;20.15;;;6.80;99.90;;;;;;5090551;28;20295;-70